createdAt,value
2022-12-23T00:01:22.810Z,11.68
2022-12-23T00:03:50.013Z,11.52
2022-12-23T00:06:18.030Z,11.23
2022-12-23T00:08:45.338Z,11.50
2022-12-23T00:11:17.792Z,12.27
2022-12-23T00:14:03.835Z,11.48
2022-12-23T00:16:31.258Z,29.77
2022-12-23T00:18:58.443Z,75.00
2022-12-23T00:21:25.524Z,79.00
2022-12-23T00:23:52.765Z,23.35
2022-12-23T00:26:24.337Z,55.85
2022-12-23T00:28:51.592Z,27.95
2022-12-23T00:31:19.253Z,29.05
2022-12-23T00:33:47.962Z,69.93
2022-12-23T00:36:25.773Z,48.67
2022-12-23T00:39:11.381Z,25.38
2022-12-23T00:41:57.104Z,34.08
2022-12-23T00:44:24.596Z,21.17
2022-12-23T00:46:51.965Z,21.30
2022-12-23T00:49:39.789Z,41.22
2022-12-23T00:52:08.355Z,33.13
2022-12-23T00:54:35.849Z,19.52
2022-12-23T00:57:02.935Z,18.30
2022-12-23T00:59:30.161Z,23.17
2022-12-23T01:02:15.946Z,43.50
2022-12-23T01:05:01.577Z,47.10
2022-12-23T01:07:28.686Z,24.92
2022-12-23T01:09:55.881Z,33.85
2022-12-23T01:12:23.979Z,17.55
2022-12-23T01:14:51.035Z,13.73
2022-12-23T01:17:18.977Z,14.38
2022-12-23T01:19:46.135Z,12.52
2022-12-23T01:22:13.212Z,26.55
2022-12-23T01:24:40.252Z,42.28
2022-12-23T01:27:07.340Z,12.38
2022-12-23T01:29:34.480Z,11.10
2022-12-23T01:32:01.646Z,14.25
2022-12-23T01:34:36.098Z,13.00
2022-12-23T01:37:04.098Z,11.18
2022-12-23T01:39:31.234Z,11.25
2022-12-23T01:42:16.936Z,10.18
2022-12-23T01:44:50.325Z,9.82
2022-12-23T01:47:27.667Z,11.07
2022-12-23T01:49:57.756Z,10.48
2022-12-23T01:52:25.158Z,9.90
2022-12-23T01:54:52.444Z,13.02
2022-12-23T01:57:19.617Z,9.52
2022-12-23T02:00:05.338Z,14.93
2022-12-23T02:02:53.882Z,11.20
2022-12-23T02:05:21.957Z,10.27
2022-12-23T02:08:07.492Z,9.30
2022-12-23T02:10:53.290Z,12.13
2022-12-23T02:13:27.356Z,9.63
2022-12-23T02:16:18.300Z,9.20
2022-12-23T02:19:11.651Z,9.02
2022-12-23T02:21:38.731Z,9.15
2022-12-23T02:24:05.924Z,9.25
2022-12-23T02:26:51.600Z,8.45
2022-12-23T02:29:35.437Z,8.68
2022-12-23T02:32:27.414Z,9.13
2022-12-23T02:35:06.717Z,8.52
2022-12-23T02:37:51.863Z,8.50
2022-12-23T02:40:24.994Z,8.13
2022-12-23T02:43:13.105Z,8.45
2022-12-23T02:45:44.284Z,8.85
2022-12-23T02:48:34.680Z,8.18
2022-12-23T02:51:02.458Z,8.15
2022-12-23T02:53:35.306Z,7.93
2022-12-23T02:56:03.761Z,7.72
2022-12-23T02:58:36.647Z,7.68
2022-12-23T03:01:05.222Z,7.40
2022-12-23T03:03:32.576Z,8.02
2022-12-23T03:05:59.778Z,7.72
2022-12-23T03:08:30.136Z,7.95
2022-12-23T03:11:02.207Z,7.32
2022-12-23T03:13:32.450Z,7.05
2022-12-23T03:16:08.398Z,6.85
2022-12-23T03:18:38.301Z,7.43
2022-12-23T03:21:16.248Z,6.68
2022-12-23T03:23:50.414Z,6.80
2022-12-23T03:26:27.201Z,7.20
2022-12-23T03:29:15.973Z,7.45
2022-12-23T03:31:43.208Z,7.45
2022-12-23T03:34:16.836Z,7.63
2022-12-23T03:36:48.942Z,6.43
2022-12-23T03:39:20.860Z,7.05
2022-12-23T03:41:51.691Z,6.50
2022-12-23T03:44:37.968Z,6.63
2022-12-23T03:47:07.568Z,7.30
2022-12-23T03:49:38.133Z,6.53
2022-12-23T03:52:17.168Z,6.20
2022-12-23T03:54:54.827Z,6.10
2022-12-23T03:57:32.008Z,6.18
2022-12-23T03:59:59.156Z,6.28
2022-12-23T04:02:26.355Z,6.63
2022-12-23T04:04:53.612Z,6.22
2022-12-23T04:07:41.355Z,6.28
2022-12-23T04:10:08.965Z,6.47
2022-12-23T04:12:36.768Z,6.35
2022-12-23T04:15:08.976Z,6.13
2022-12-23T04:20:08.094Z,5.47
2022-12-23T04:22:35.235Z,6.22
2022-12-23T04:25:02.237Z,6.15
2022-12-23T04:27:29.379Z,5.78
2022-12-23T04:29:56.495Z,5.70
2022-12-23T04:32:23.665Z,5.68
2022-12-23T04:34:50.715Z,5.85
2022-12-23T04:37:17.905Z,5.40
2022-12-23T04:39:45.042Z,5.78
2022-12-23T04:42:12.153Z,5.95
2022-12-23T04:44:39.224Z,6.63
2022-12-23T04:47:06.317Z,6.03
2022-12-23T04:49:33.453Z,5.53
2022-12-23T04:52:00.580Z,6.25
2022-12-23T04:54:27.792Z,7.38
2022-12-23T04:56:54.861Z,7.40
2022-12-23T04:59:21.981Z,7.22
2022-12-23T05:01:49.834Z,7.43
2022-12-23T05:04:17.139Z,8.50
2022-12-23T05:06:44.340Z,9.85
2022-12-23T05:09:11.623Z,9.82
2022-12-23T05:11:42.348Z,10.27
2022-12-23T05:14:12.720Z,11.00
2022-12-23T05:16:40.278Z,10.30
2022-12-23T05:19:07.385Z,10.30
2022-12-23T05:21:34.534Z,10.10
2022-12-23T05:24:01.630Z,9.63
2022-12-23T05:26:28.819Z,10.32
2022-12-23T05:28:55.985Z,11.07
2022-12-23T05:31:23.113Z,10.23
2022-12-23T05:33:50.429Z,8.27
2022-12-23T05:36:17.537Z,8.15
2022-12-23T05:38:44.659Z,8.07
2022-12-23T05:41:11.699Z,8.20
2022-12-23T05:43:38.858Z,7.75
2022-12-23T05:46:06.105Z,8.45
2022-12-23T05:48:33.463Z,8.95
2022-12-23T05:51:00.651Z,9.18
2022-12-23T05:53:27.791Z,7.82
2022-12-23T05:55:54.976Z,9.25
2022-12-23T05:58:22.135Z,8.55
2022-12-23T06:00:49.252Z,9.02
2022-12-23T06:03:16.558Z,10.77
2022-12-23T06:05:44.252Z,9.93
2022-12-23T06:08:11.385Z,9.77
2022-12-23T06:10:38.581Z,6.93
2022-12-23T06:13:05.728Z,9.02
2022-12-23T06:15:32.775Z,9.52
2022-12-23T06:17:59.820Z,8.82
2022-12-23T06:20:26.987Z,6.72
2022-12-23T06:22:54.329Z,7.13
2022-12-23T06:25:21.494Z,10.32
2022-12-23T06:27:48.751Z,12.93
2022-12-23T06:30:15.908Z,12.88
2022-12-23T06:32:43.011Z,17.77
2022-12-23T06:35:10.168Z,24.02
2022-12-23T06:37:37.356Z,22.23
2022-12-23T06:40:04.649Z,23.40
2022-12-23T06:42:31.822Z,23.33
2022-12-23T06:44:58.896Z,22.65
2022-12-23T06:47:26.112Z,21.92
2022-12-23T06:49:53.378Z,19.85
2022-12-23T06:52:20.652Z,19.88
2022-12-23T06:54:47.832Z,18.27
2022-12-23T06:57:14.863Z,18.55
2022-12-23T06:59:42.074Z,16.77
2022-12-23T07:02:11.392Z,16.40
2022-12-23T07:04:38.785Z,17.40
2022-12-23T07:07:12.443Z,15.50
2022-12-23T07:09:42.446Z,13.00
2022-12-23T07:12:09.638Z,11.13
2022-12-23T07:14:36.745Z,9.43
2022-12-23T07:17:03.804Z,9.65
2022-12-23T07:19:31.045Z,8.80
2022-12-23T07:21:58.342Z,10.43
2022-12-23T07:24:25.553Z,12.80
2022-12-23T07:26:52.737Z,14.05
2022-12-23T07:29:19.959Z,14.30
2022-12-23T07:31:47.160Z,13.82
2022-12-23T07:34:14.252Z,11.02
2022-12-23T07:36:41.454Z,9.65
2022-12-23T07:39:08.697Z,10.25
2022-12-23T07:41:35.917Z,9.07
2022-12-23T07:44:06.941Z,9.68
2022-12-23T07:46:34.175Z,9.57
2022-12-23T07:49:01.316Z,10.48
2022-12-23T07:51:28.552Z,9.40
2022-12-23T07:53:55.601Z,8.73
2022-12-23T07:56:22.745Z,8.60
2022-12-23T07:58:52.692Z,8.85
2022-12-23T08:01:20.126Z,8.50
2022-12-23T08:03:47.806Z,9.05
2022-12-23T08:06:15.911Z,8.25
2022-12-23T08:08:44.402Z,8.85
2022-12-23T08:11:12.162Z,9.50
2022-12-23T08:13:40.505Z,10.10
2022-12-23T08:16:07.981Z,9.38
2022-12-23T08:18:37.094Z,8.55
2022-12-23T08:21:05.890Z,7.57
2022-12-23T08:23:33.497Z,7.50
2022-12-23T08:26:03.566Z,7.60
2022-12-23T08:28:30.819Z,7.57
2022-12-23T08:31:32.304Z,7.60
2022-12-23T08:34:00.177Z,8.25
2022-12-23T08:36:29.269Z,8.05
2022-12-23T08:38:56.944Z,8.30
2022-12-23T08:41:28.404Z,6.97
2022-12-23T08:43:55.516Z,8.98
2022-12-23T08:46:23.059Z,8.95
2022-12-23T08:48:50.338Z,8.70
2022-12-23T08:51:18.324Z,10.98
2022-12-23T08:53:46.194Z,13.20
2022-12-23T08:56:18.561Z,24.17
2022-12-23T08:58:46.553Z,22.90
2022-12-23T09:01:14.706Z,26.80
2022-12-23T09:03:42.051Z,27.00
2022-12-23T09:06:16.624Z,28.52
2022-12-23T09:08:44.353Z,26.83
2022-12-23T09:11:12.451Z,26.77
2022-12-23T09:13:39.671Z,26.75
2022-12-23T09:16:07.352Z,26.17
2022-12-23T09:18:35.057Z,24.08
2022-12-23T09:21:03.866Z,25.58
2022-12-23T09:23:31.459Z,24.98
2022-12-23T09:25:58.833Z,28.35
2022-12-23T09:28:26.133Z,31.05
2022-12-23T09:30:53.524Z,31.42
2022-12-23T09:33:20.587Z,27.13
2022-12-23T09:35:49.162Z,23.58
2022-12-23T09:38:16.463Z,24.85
2022-12-23T09:40:43.682Z,19.17
2022-12-23T09:43:33.887Z,22.23
2022-12-23T09:46:11.814Z,20.92
2022-12-23T09:48:41.445Z,17.42
2022-12-23T09:51:10.660Z,20.60
2022-12-23T09:53:49.780Z,14.90
2022-12-23T09:56:20.196Z,13.63
2022-12-23T09:59:06.177Z,13.63
2022-12-23T10:01:44.431Z,11.80
2022-12-23T10:04:28.089Z,9.45
2022-12-23T10:07:11.988Z,10.63
2022-12-23T10:09:41.430Z,10.20
2022-12-23T10:12:19.622Z,9.52
2022-12-23T10:14:51.075Z,10.85
2022-12-23T10:17:25.247Z,11.25
2022-12-23T10:19:53.825Z,10.20
2022-12-23T10:22:20.832Z,10.52
2022-12-23T10:24:48.298Z,11.65
2022-12-23T10:27:33.975Z,10.10
2022-12-23T10:30:19.906Z,10.15
2022-12-23T10:33:05.733Z,11.93
2022-12-23T10:35:46.035Z,12.10
2022-12-23T10:38:19.300Z,14.18
2022-12-23T10:40:52.331Z,15.30
2022-12-23T10:43:31.445Z,13.52
2022-12-23T10:46:10.789Z,12.27
2022-12-23T10:48:37.828Z,12.63
2022-12-23T10:51:10.392Z,14.32
2022-12-23T10:53:55.620Z,10.45
2022-12-23T10:56:23.111Z,11.15
2022-12-23T10:58:51.998Z,11.43
2022-12-23T11:01:26.619Z,10.25
2022-12-23T11:04:00.992Z,10.93
2022-12-23T11:06:34.839Z,10.10
2022-12-23T11:09:04.256Z,12.32
2022-12-23T11:11:50.246Z,12.35
2022-12-23T11:16:47.015Z,12.90
2022-12-23T11:19:16.126Z,12.50
2022-12-23T11:21:53.745Z,11.82
2022-12-23T11:24:22.467Z,10.70
2022-12-23T11:27:13.198Z,9.63
2022-12-23T11:29:44.042Z,10.13
2022-12-23T11:32:17.491Z,8.80
2022-12-23T11:34:45.931Z,8.15
2022-12-23T11:37:31.747Z,8.23
2022-12-23T11:39:58.948Z,8.45
2022-12-23T11:42:29.677Z,8.95
2022-12-23T11:44:58.631Z,9.50
2022-12-23T11:47:40.433Z,9.10
2022-12-23T11:50:38.130Z,9.13
2022-12-23T11:53:13.433Z,9.50
2022-12-23T11:55:45.501Z,10.25
2022-12-23T11:58:16.969Z,8.98
2022-12-23T12:00:55.336Z,10.43
2022-12-23T12:03:26.148Z,12.90
2022-12-23T12:06:04.037Z,11.60
2022-12-23T12:08:33.255Z,7.28
2022-12-23T12:11:02.560Z,6.60
2022-12-23T12:13:31.171Z,7.35
2022-12-23T12:16:14.249Z,7.00
2022-12-23T12:18:42.831Z,7.43
2022-12-23T12:21:13.309Z,7.97
2022-12-23T12:23:40.481Z,7.07
2022-12-23T12:26:13.806Z,5.78
2022-12-23T12:28:42.626Z,6.63
2022-12-23T12:31:24.332Z,5.35
2022-12-23T12:33:54.875Z,6.95
2022-12-23T12:36:22.279Z,5.70
2022-12-23T12:38:50.055Z,6.25
2022-12-23T12:41:29.215Z,6.50
2022-12-23T12:44:01.232Z,6.47
2022-12-23T12:46:33.096Z,7.15
2022-12-23T12:49:11.885Z,8.27
2022-12-23T12:52:05.281Z,8.75
2022-12-23T12:54:35.588Z,8.52
2022-12-23T12:57:04.219Z,9.30
2022-12-23T12:59:35.747Z,10.07
2022-12-23T13:02:03.012Z,10.10
2022-12-23T13:04:42.525Z,9.88
2022-12-23T13:07:29.338Z,10.13
2022-12-23T13:10:00.439Z,9.20
2022-12-23T13:12:46.520Z,10.55
2022-12-23T13:18:06.824Z,9.48
2022-12-23T13:20:43.109Z,9.52
2022-12-23T13:23:42.888Z,9.68
2022-12-23T13:28:36.903Z,9.50
2022-12-23T13:31:17.747Z,10.82
2022-12-23T13:34:00.088Z,10.43
2022-12-23T13:36:27.234Z,10.20
2022-12-23T13:38:57.439Z,12.02
2022-12-23T13:41:35.976Z,12.73
2022-12-23T13:44:08.107Z,11.05
2022-12-23T13:46:47.760Z,9.55
2022-12-23T13:49:21.587Z,10.65
2022-12-23T13:51:56.003Z,10.73
2022-12-23T13:54:42.170Z,10.88
2022-12-23T13:57:27.763Z,9.40
2022-12-23T14:00:05.971Z,9.57
2022-12-23T14:02:42.323Z,10.02
2022-12-23T14:05:28.283Z,11.23
2022-12-23T14:07:55.507Z,10.70
2022-12-23T14:10:24.548Z,9.07
2022-12-23T14:12:53.318Z,9.23
2022-12-23T14:15:42.985Z,9.20
2022-12-23T14:18:10.040Z,8.73
2022-12-23T14:21:00.992Z,9.60
2022-12-23T14:23:37.218Z,9.18
2022-12-23T14:26:17.009Z,9.15
2022-12-23T14:29:02.455Z,9.05
2022-12-23T14:31:33.861Z,9.02
2022-12-23T14:34:04.954Z,9.27
2022-12-23T14:36:32.255Z,10.45
2022-12-23T14:39:12.727Z,10.85
2022-12-23T14:41:49.182Z,11.10
2022-12-23T14:44:43.917Z,12.30
2022-12-23T14:47:29.305Z,12.18
2022-12-23T14:49:56.530Z,11.65
2022-12-23T14:52:39.311Z,10.52
2022-12-23T14:55:32.366Z,13.40
2022-12-23T14:58:35.604Z,12.00
2022-12-23T15:01:04.825Z,13.10
2022-12-23T15:03:40.525Z,12.43
2022-12-23T15:08:39.596Z,13.23
2022-12-23T15:11:09.054Z,14.77
2022-12-23T15:13:36.878Z,15.57
2022-12-23T15:16:04.139Z,16.17
2022-12-23T15:18:31.350Z,16.23
2022-12-23T15:20:59.582Z,16.80
2022-12-23T15:23:26.763Z,16.27
2022-12-23T15:25:56.443Z,18.10
2022-12-23T15:28:28.252Z,18.77
2022-12-23T15:30:56.869Z,20.38
2022-12-23T15:34:01.465Z,20.45
2022-12-23T15:36:12.889Z,20.73
2022-12-23T15:38:40.065Z,19.58
2022-12-23T15:41:14.875Z,20.98
2022-12-23T15:43:42.924Z,23.53
2022-12-23T15:46:28.615Z,24.83
2022-12-23T15:48:57.210Z,26.58
2022-12-23T15:51:42.918Z,24.80
2022-12-23T15:54:19.673Z,26.73
2022-12-23T15:56:49.017Z,29.88
2022-12-23T15:59:27.865Z,30.25
2022-12-23T16:01:55.587Z,30.75
2022-12-23T16:04:25.970Z,31.48
2022-12-23T16:06:53.847Z,31.20
2022-12-23T16:09:20.886Z,30.48
2022-12-23T16:11:53.521Z,32.85
2022-12-23T16:14:21.284Z,31.48
2022-12-23T16:16:48.535Z,32.38
2022-12-23T16:19:34.239Z,35.70
2022-12-23T16:22:04.867Z,45.08
2022-12-23T16:24:32.004Z,42.25
2022-12-23T16:27:01.944Z,43.65
2022-12-23T16:29:29.167Z,42.85
2022-12-23T16:32:01.527Z,42.25
2022-12-23T16:34:31.063Z,43.30
2022-12-23T16:36:58.236Z,41.60
2022-12-23T16:39:25.371Z,42.25
2022-12-23T16:41:52.543Z,39.67
2022-12-23T16:44:19.942Z,40.90
2022-12-23T16:46:48.950Z,41.17
2022-12-23T16:49:20.649Z,41.45
2022-12-23T16:51:48.175Z,39.58
2022-12-23T16:54:16.704Z,40.58
2022-12-23T16:56:43.940Z,41.15
2022-12-23T16:59:11.131Z,46.30
2022-12-23T17:01:43.150Z,44.92
2022-12-23T17:04:10.320Z,49.20
2022-12-23T17:06:38.018Z,50.13
2022-12-23T17:09:05.948Z,49.88
2022-12-23T17:11:41.338Z,53.10
2022-12-23T17:14:15.686Z,60.10
2022-12-23T17:16:43.640Z,65.30
2022-12-23T17:19:11.734Z,61.17
2022-12-23T17:21:39.400Z,56.72
2022-12-23T17:24:12.222Z,59.95
2022-12-23T17:26:39.569Z,57.58
2022-12-23T17:29:07.016Z,58.00
2022-12-23T17:31:34.860Z,49.33
2022-12-23T17:34:02.334Z,48.75
2022-12-23T17:36:29.838Z,41.95
2022-12-23T17:38:57.095Z,50.42
2022-12-23T17:41:29.127Z,41.45
2022-12-23T17:43:56.302Z,42.88
2022-12-23T17:46:23.865Z,34.00
2022-12-23T17:48:51.165Z,36.20
2022-12-23T17:51:19.733Z,41.92
2022-12-23T17:53:50.293Z,43.20
2022-12-23T17:56:20.057Z,45.30
2022-12-23T17:58:48.041Z,43.85
2022-12-23T18:01:25.502Z,36.10
2022-12-23T18:03:53.121Z,31.00
2022-12-23T18:06:21.093Z,35.67
2022-12-23T18:08:48.295Z,43.50
2022-12-23T18:11:34.004Z,32.65
2022-12-23T18:14:02.188Z,34.13
2022-12-23T18:16:29.423Z,28.75
2022-12-23T18:18:56.608Z,26.35
2022-12-23T18:21:27.923Z,21.50
2022-12-23T18:23:56.915Z,23.70
2022-12-23T18:26:24.176Z,23.13
2022-12-23T18:28:53.048Z,23.52
2022-12-23T18:31:23.141Z,23.00
2022-12-23T18:33:51.151Z,22.35
2022-12-23T18:36:26.433Z,23.75
2022-12-23T18:38:53.835Z,24.13
2022-12-23T18:41:21.620Z,26.33
2022-12-23T18:43:48.981Z,25.08
2022-12-23T18:46:16.220Z,25.83
2022-12-23T18:48:43.539Z,28.55
2022-12-23T18:51:13.992Z,28.80
2022-12-23T18:53:41.950Z,27.98
2022-12-23T18:56:12.456Z,27.58
2022-12-23T18:58:39.686Z,27.05
2022-12-23T19:01:10.590Z,25.48
2022-12-23T19:03:37.731Z,25.30
2022-12-23T19:06:06.894Z,28.38
2022-12-23T19:08:34.792Z,33.70
2022-12-23T19:11:02.337Z,24.05
2022-12-23T19:13:29.520Z,22.98
2022-12-23T19:15:58.116Z,21.85
2022-12-23T19:18:25.189Z,22.25
2022-12-23T19:20:52.364Z,21.98
2022-12-23T19:23:19.588Z,23.15
2022-12-23T19:25:54.533Z,23.60
2022-12-23T19:28:23.015Z,24.67
2022-12-23T19:30:50.238Z,23.10
2022-12-23T19:33:17.495Z,22.40
2022-12-23T19:35:44.640Z,23.33
2022-12-23T19:38:12.751Z,25.55
2022-12-23T19:40:40.387Z,42.30
2022-12-23T19:43:07.644Z,35.60
2022-12-23T19:45:34.819Z,32.97
2022-12-23T19:48:01.908Z,23.70
2022-12-23T19:50:28.956Z,23.15
2022-12-23T19:52:56.701Z,20.90
2022-12-23T19:55:24.107Z,22.60
2022-12-23T19:57:52.453Z,21.55
2022-12-23T20:00:19.807Z,23.73
2022-12-23T20:02:47.100Z,21.80
2022-12-23T20:05:14.249Z,19.63
2022-12-23T20:07:41.573Z,17.23
2022-12-23T20:10:09.006Z,18.85
2022-12-23T20:12:36.321Z,19.67
2022-12-23T20:15:03.795Z,17.40
2022-12-23T20:17:30.800Z,16.55
2022-12-23T20:19:57.938Z,17.85
2022-12-23T20:22:25.043Z,17.67
2022-12-23T20:24:52.298Z,18.70
2022-12-23T20:27:25.981Z,18.63
2022-12-23T20:29:54.844Z,17.35
2022-12-23T20:32:22.177Z,16.20
2022-12-23T20:34:50.363Z,17.52
2022-12-23T20:37:17.918Z,21.55
2022-12-23T20:39:44.987Z,22.08
2022-12-23T20:42:12.118Z,20.13
2022-12-23T20:44:39.260Z,18.63
2022-12-23T20:47:06.540Z,18.65
2022-12-23T20:49:33.772Z,21.00
2022-12-23T20:52:00.956Z,18.92
2022-12-23T20:54:33.192Z,18.00
2022-12-23T20:57:01.612Z,17.15
2022-12-23T20:59:28.781Z,19.83
2022-12-23T21:01:56.776Z,21.65
2022-12-23T21:04:24.053Z,20.30
2022-12-23T21:06:51.140Z,20.00
2022-12-23T21:09:18.363Z,19.75
2022-12-23T21:11:46.420Z,17.92
2022-12-23T21:14:14.726Z,16.88
2022-12-23T21:16:42.084Z,15.75
2022-12-23T21:19:13.691Z,15.50
2022-12-23T21:21:40.778Z,14.52
2022-12-23T21:24:08.222Z,14.68
2022-12-23T21:26:35.614Z,14.60
2022-12-23T21:29:04.239Z,15.95
2022-12-23T21:31:33.332Z,14.65
2022-12-23T21:34:01.224Z,15.00
2022-12-23T21:36:31.263Z,23.85
2022-12-23T21:38:58.971Z,15.48
2022-12-23T21:41:27.980Z,17.25
2022-12-23T21:43:56.510Z,16.00
2022-12-23T21:46:24.093Z,15.00
2022-12-23T21:48:51.532Z,14.63
2022-12-23T21:51:20.503Z,14.02
2022-12-23T21:53:50.498Z,29.30
2022-12-23T21:56:19.999Z,15.10
2022-12-23T21:58:47.453Z,14.63
2022-12-23T22:01:18.795Z,15.32
2022-12-23T22:03:47.382Z,21.92
2022-12-23T22:06:24.519Z,13.70
2022-12-23T22:08:52.147Z,14.10
2022-12-23T22:11:20.459Z,14.02
2022-12-23T22:13:47.746Z,19.67
2022-12-23T22:16:16.744Z,25.10
2022-12-23T22:18:44.189Z,24.48
2022-12-23T22:21:12.889Z,32.30
2022-12-23T22:23:40.138Z,35.78
2022-12-23T22:26:07.970Z,34.70
2022-12-23T22:28:35.996Z,34.40
2022-12-23T22:31:03.937Z,44.90
2022-12-23T22:33:31.781Z,42.50
2022-12-23T22:35:58.904Z,33.38
2022-12-23T22:38:26.206Z,24.25
2022-12-23T22:40:53.868Z,25.02
2022-12-23T22:43:21.194Z,19.35
2022-12-23T22:45:55.105Z,18.90
2022-12-23T22:48:22.549Z,19.90
2022-12-23T22:50:49.804Z,20.60
2022-12-23T22:53:17.130Z,17.98
2022-12-23T22:55:44.460Z,18.10
2022-12-23T22:58:11.542Z,17.75
2022-12-23T23:00:38.738Z,18.30
2022-12-23T23:03:05.903Z,17.67
2022-12-23T23:05:33.143Z,18.00
2022-12-23T23:08:00.204Z,16.38
2022-12-23T23:10:27.476Z,17.17
2022-12-23T23:12:54.639Z,16.33
2022-12-23T23:15:21.757Z,16.48
2022-12-23T23:17:48.840Z,16.45
2022-12-23T23:20:15.980Z,19.27
2022-12-23T23:22:44.771Z,17.27
2022-12-23T23:25:11.996Z,15.68
2022-12-23T23:27:39.046Z,15.57
2022-12-23T23:30:06.636Z,15.88
2022-12-23T23:32:33.952Z,13.00
2022-12-23T23:35:05.554Z,13.73
2022-12-23T23:37:38.702Z,12.45
2022-12-23T23:40:06.711Z,11.25
2022-12-23T23:42:33.908Z,11.02
2022-12-23T23:45:01.090Z,12.48
2022-12-23T23:47:28.215Z,10.45
2022-12-23T23:49:55.414Z,10.75
2022-12-23T23:52:23.227Z,10.02
2022-12-23T23:54:50.343Z,12.27
2022-12-23T23:57:17.477Z,11.93
2022-12-23T23:59:44.746Z,11.02
